Vitor Meireles, Brazil
Current Conditions -  °F | °C
As of 11:00 PM on Saturday 22 Nov 2014 (Local Time) from SBNF Reporting Station
Few Clouds Few Clouds  
Wind Chill: 79°   Ceiling: Unl
Heat Index: 82°   Visibility: 6mi
Dew Point: 72°   Wind: 10mph
Humidity: 78%   Direction: 150°SSE
Pressure: 29.83"   Gusts: NA
Location:  26.88°S, 49.83°W
Report Text: SBNF 230100Z 15009KT 9999 FEW014 26/22 Q1010
Loading
Personal Weather Stations






























Interactive Weather Map New forecast layout! Learn more

10-Day Weather Forecast

Advertisements
Track Severe Weather on mobile